createdAt,value
2023-02-25T00:01:36.668Z,3.70
2023-02-25T00:04:05.020Z,3.60
2023-02-25T00:06:33.181Z,3.60
2023-02-25T00:08:59.986Z,3.60
2023-02-25T00:11:27.515Z,3.60
2023-02-25T00:13:55.628Z,3.60
2023-02-25T00:16:26.386Z,3.60
2023-02-25T00:18:55.250Z,3.70
2023-02-25T00:21:22.076Z,3.60
2023-02-25T00:23:50.087Z,3.60
2023-02-25T00:26:17.800Z,3.70
2023-02-25T00:28:45.356Z,3.60
2023-02-25T00:31:24.527Z,3.60
2023-02-25T00:33:53.033Z,3.60
2023-02-25T00:36:25.052Z,3.70
2023-02-25T00:38:55.128Z,3.60
2023-02-25T00:41:28.595Z,3.60
2023-02-25T00:44:01.253Z,3.60
2023-02-25T00:46:30.549Z,3.70
2023-02-25T00:48:59.104Z,3.60
2023-02-25T00:51:29.702Z,3.60
2023-02-25T00:53:57.734Z,3.60
2023-02-25T00:56:26.318Z,3.60
2023-02-25T00:58:54.122Z,3.60
2023-02-25T01:01:23.999Z,3.60
2023-02-25T01:03:52.942Z,3.60
2023-02-25T01:06:20.922Z,3.60
2023-02-25T01:08:52.607Z,3.50
2023-02-25T01:11:27.924Z,3.60
2023-02-25T01:14:00.344Z,3.50
2023-02-25T01:16:29.529Z,3.50
2023-02-25T01:18:59.388Z,3.50
2023-02-25T01:21:34.361Z,3.50
2023-02-25T01:24:06.148Z,3.50
2023-02-25T01:26:38.321Z,3.50
2023-02-25T01:29:10.678Z,3.50
2023-02-25T01:31:38.320Z,3.50
2023-02-25T01:34:07.593Z,3.40
2023-02-25T01:36:35.355Z,3.50
2023-02-25T01:39:03.492Z,3.50
2023-02-25T01:41:31.868Z,3.50
2023-02-25T01:44:10.780Z,3.40
2023-02-25T01:46:41.627Z,3.40
2023-02-25T01:49:34.317Z,3.40
2023-02-25T01:52:23.471Z,3.40
2023-02-25T01:54:54.571Z,3.50
2023-02-25T01:57:22.169Z,3.50
2023-02-25T01:59:53.126Z,3.40
2023-02-25T02:02:22.547Z,3.40
2023-02-25T02:04:52.821Z,3.50
2023-02-25T02:07:24.835Z,3.50
2023-02-25T02:09:59.162Z,3.50
2023-02-25T02:12:54.432Z,3.40
2023-02-25T02:15:21.541Z,3.50
2023-02-25T02:17:57.009Z,3.50
2023-02-25T02:20:29.891Z,3.80
2023-02-25T02:23:05.412Z,3.50
2023-02-25T02:25:38.307Z,3.60
2023-02-25T02:28:14.189Z,3.60
2023-02-25T02:31:19.717Z,3.60
2023-02-25T02:33:52.657Z,3.60
2023-02-25T02:36:52.142Z,3.60
2023-02-25T02:39:34.180Z,3.60
2023-02-25T02:42:06.607Z,3.70
2023-02-25T02:45:06.446Z,3.60
2023-02-25T02:47:38.274Z,3.60
2023-02-25T02:50:24.000Z,3.60
2023-02-25T02:52:53.402Z,3.60
2023-02-25T02:55:24.910Z,3.60
2023-02-25T02:57:58.426Z,3.60
2023-02-25T03:00:30.918Z,3.60
2023-02-25T03:03:21.396Z,3.60
2023-02-25T03:05:53.723Z,3.60
2023-02-25T03:08:21.618Z,3.60
2023-02-25T03:10:49.004Z,3.60
2023-02-25T03:13:16.648Z,3.50
2023-02-25T03:15:44.712Z,3.60
2023-02-25T03:18:34.660Z,3.60
2023-02-25T03:21:03.926Z,3.60
2023-02-25T03:23:34.118Z,3.60
2023-02-25T03:26:18.101Z,3.70
2023-02-25T03:28:46.288Z,3.60
2023-02-25T03:31:27.285Z,3.60
2023-02-25T03:34:15.662Z,3.60
2023-02-25T03:36:51.581Z,3.60
2023-02-25T03:39:24.873Z,3.60
2023-02-25T03:41:58.668Z,3.60
2023-02-25T03:44:44.258Z,3.60
2023-02-25T03:47:12.742Z,3.70
2023-02-25T03:49:55.027Z,3.70
2023-02-25T03:52:27.525Z,3.70
2023-02-25T03:54:57.603Z,3.70
2023-02-25T03:57:26.356Z,3.70
2023-02-25T03:59:56.641Z,3.70
2023-02-25T04:02:33.401Z,3.70
2023-02-25T04:05:00.293Z,3.70
2023-02-25T04:07:27.235Z,3.70
2023-02-25T04:09:54.295Z,3.70
2023-02-25T04:12:21.412Z,3.70
2023-02-25T04:14:48.362Z,3.70
2023-02-25T04:17:15.123Z,3.70
2023-02-25T04:19:44.582Z,3.60
2023-02-25T04:22:11.585Z,3.70
2023-02-25T04:24:41.362Z,3.70
2023-02-25T04:27:08.359Z,3.70
2023-02-25T04:29:35.338Z,3.70
2023-02-25T04:32:02.322Z,3.60
2023-02-25T04:34:29.657Z,3.60
2023-02-25T04:36:56.472Z,3.50
2023-02-25T04:39:23.328Z,3.50
2023-02-25T04:41:50.143Z,3.60
2023-02-25T04:44:17.022Z,3.50
2023-02-25T04:46:44.437Z,3.60
2023-02-25T04:49:11.848Z,3.60
2023-02-25T04:51:39.688Z,3.50
2023-02-25T04:54:06.929Z,3.60
2023-02-25T04:56:33.811Z,3.60
2023-02-25T04:59:00.694Z,3.60
2023-02-25T05:01:29.989Z,3.60
2023-02-25T05:03:57.337Z,3.50
2023-02-25T05:06:30.592Z,3.60
2023-02-25T05:08:58.558Z,3.50
2023-02-25T05:11:30.371Z,3.60
2023-02-25T05:13:57.287Z,3.60
2023-02-25T05:16:25.054Z,3.60
2023-02-25T05:18:52.911Z,3.60
2023-02-25T05:21:26.833Z,3.50
2023-02-25T05:23:54.229Z,3.60
2023-02-25T05:26:23.356Z,3.60
2023-02-25T05:28:56.345Z,3.60
2023-02-25T05:31:25.174Z,3.60
2023-02-25T05:33:52.669Z,3.60
2023-02-25T05:36:23.153Z,3.60
2023-02-25T05:38:58.858Z,3.70
2023-02-25T05:41:26.915Z,3.60
2023-02-25T05:43:53.771Z,3.60
2023-02-25T05:46:20.818Z,3.60
2023-02-25T05:48:48.762Z,3.60
2023-02-25T05:51:22.731Z,3.70
2023-02-25T05:53:51.820Z,3.60
2023-02-25T05:56:21.574Z,3.60
2023-02-25T05:58:48.831Z,3.70
2023-02-25T06:01:22.798Z,3.60
2023-02-25T06:03:51.861Z,3.60
2023-02-25T06:06:23.818Z,3.60
2023-02-25T06:08:51.688Z,3.60
2023-02-25T06:11:24.669Z,3.50
2023-02-25T06:13:52.853Z,3.60
2023-02-25T06:16:20.001Z,3.50
2023-02-25T06:18:48.132Z,3.50
2023-02-25T06:21:15.965Z,3.50
2023-02-25T06:23:44.040Z,3.50
2023-02-25T06:26:13.982Z,3.50
2023-02-25T06:28:41.199Z,3.50
2023-02-25T06:31:13.302Z,3.50
2023-02-25T06:33:40.477Z,3.50
2023-02-25T06:36:08.904Z,3.50
2023-02-25T06:38:36.140Z,3.50
2023-02-25T06:41:22.815Z,3.50
2023-02-25T06:43:54.278Z,3.50
2023-02-25T06:46:25.094Z,3.50
2023-02-25T06:48:57.566Z,3.50
2023-02-25T06:51:26.072Z,3.60
2023-02-25T06:53:53.253Z,3.50
2023-02-25T06:56:26.741Z,3.50
2023-02-25T06:58:54.025Z,3.40
2023-02-25T07:01:21.141Z,3.40
2023-02-25T07:03:48.121Z,3.50
2023-02-25T07:06:15.986Z,3.40
2023-02-25T07:08:43.194Z,3.40
2023-02-25T07:11:15.180Z,3.40
2023-02-25T07:13:43.352Z,3.40
2023-02-25T07:16:14.902Z,3.50
2023-02-25T07:18:42.066Z,3.50
2023-02-25T07:21:09.159Z,3.60
2023-02-25T07:23:35.987Z,3.60
2023-02-25T07:26:07.633Z,3.60
2023-02-25T07:28:35.581Z,3.70
2023-02-25T07:31:04.066Z,3.60
2023-02-25T07:33:32.910Z,3.60
2023-02-25T07:35:59.712Z,3.60
2023-02-25T07:38:26.573Z,3.60
2023-02-25T07:40:53.388Z,3.80
2023-02-25T07:43:20.314Z,4.00
2023-02-25T07:45:49.992Z,4.10
2023-02-25T07:48:16.806Z,4.00
2023-02-25T07:50:45.896Z,4.10
2023-02-25T07:53:12.668Z,4.30
2023-02-25T07:55:43.690Z,4.50
2023-02-25T07:58:12.139Z,4.50
2023-02-25T08:00:42.063Z,4.70
2023-02-25T08:03:08.847Z,4.40
2023-02-25T08:05:39.131Z,4.50
2023-02-25T08:08:06.329Z,4.60
2023-02-25T08:10:33.097Z,4.60
2023-02-25T08:13:02.706Z,4.50
2023-02-25T08:15:29.587Z,4.60
2023-02-25T08:18:01.998Z,4.50
2023-02-25T08:20:28.824Z,4.40
2023-02-25T08:22:57.498Z,4.50
2023-02-25T08:25:24.288Z,5.10
2023-02-25T08:27:51.093Z,4.80
2023-02-25T08:30:18.342Z,4.80
2023-02-25T08:32:48.190Z,5.10
2023-02-25T08:35:16.831Z,4.90
2023-02-25T08:37:46.674Z,4.70
2023-02-25T08:40:14.979Z,4.80
2023-02-25T08:42:44.912Z,4.70
2023-02-25T08:45:12.522Z,4.70
2023-02-25T08:47:44.298Z,4.60
2023-02-25T08:50:12.088Z,4.80
2023-02-25T08:52:42.086Z,4.80
2023-02-25T08:55:09.869Z,4.50
2023-02-25T08:57:36.765Z,4.60
2023-02-25T09:00:06.618Z,4.50
2023-02-25T09:02:33.702Z,4.40
2023-02-25T09:05:00.545Z,4.30
2023-02-25T09:07:27.471Z,4.40
2023-02-25T09:09:54.914Z,4.30
2023-02-25T09:12:24.547Z,4.30
2023-02-25T09:15:00.784Z,4.30
2023-02-25T09:17:27.552Z,4.40
2023-02-25T09:19:54.453Z,4.40
2023-02-25T09:22:21.459Z,4.40
2023-02-25T09:24:48.372Z,4.50
2023-02-25T09:27:15.115Z,4.50
2023-02-25T09:29:42.010Z,4.80
2023-02-25T09:32:15.927Z,4.70
2023-02-25T09:34:42.876Z,4.70
2023-02-25T09:37:12.111Z,4.60
2023-02-25T09:39:39.121Z,4.70
2023-02-25T09:42:22.898Z,4.80
2023-02-25T09:45:00.201Z,4.90
2023-02-25T09:47:50.201Z,5.10
2023-02-25T09:50:27.000Z,5.00
2023-02-25T09:53:02.427Z,4.70
2023-02-25T09:55:33.738Z,4.70
2023-02-25T09:58:07.732Z,4.50
2023-02-25T10:00:55.544Z,4.70
2023-02-25T10:04:08.589Z,4.90
2023-02-25T10:06:39.500Z,5.10
2023-02-25T10:09:13.475Z,5.10
2023-02-25T10:12:10.500Z,5.40
2023-02-25T10:14:46.728Z,5.10
2023-02-25T10:17:24.270Z,5.00
2023-02-25T10:20:38.707Z,4.70
2023-02-25T10:23:27.746Z,4.60
2023-02-25T10:26:10.133Z,4.30
2023-02-25T10:28:39.244Z,4.20
2023-02-25T10:31:08.857Z,4.20
2023-02-25T10:33:37.960Z,4.20
2023-02-25T10:36:27.909Z,4.30
2023-02-25T10:38:54.806Z,4.20
2023-02-25T10:41:24.068Z,4.20
2023-02-25T10:43:51.831Z,4.30
2023-02-25T10:47:02.880Z,4.10
2023-02-25T10:49:38.112Z,4.00
2023-02-25T10:52:17.736Z,3.90
2023-02-25T10:54:53.004Z,4.00
2023-02-25T10:57:31.179Z,4.20
2023-02-25T11:00:06.943Z,4.10
2023-02-25T11:02:41.192Z,4.30
2023-02-25T11:05:38.669Z,4.50
2023-02-25T11:08:12.699Z,4.70
2023-02-25T11:10:39.576Z,5.00
2023-02-25T11:13:06.778Z,4.80
2023-02-25T11:15:45.831Z,4.70
2023-02-25T11:18:24.127Z,4.70
2023-02-25T11:21:07.588Z,4.70
2023-02-25T11:23:45.557Z,4.40
2023-02-25T11:26:37.705Z,4.30
2023-02-25T11:29:21.299Z,4.10
2023-02-25T11:31:52.271Z,3.90
2023-02-25T11:34:25.857Z,4.10
2023-02-25T11:36:53.234Z,4.30
2023-02-25T11:39:26.066Z,4.70
2023-02-25T11:42:01.476Z,4.70
2023-02-25T11:44:44.927Z,4.70
2023-02-25T11:47:27.394Z,4.70
2023-02-25T11:50:47.241Z,4.70
2023-02-25T11:53:36.176Z,5.00
2023-02-25T11:56:24.856Z,5.10
2023-02-25T11:59:23.033Z,4.80
2023-02-25T12:01:55.680Z,4.90
2023-02-25T12:04:59.985Z,4.90
2023-02-25T12:07:59.996Z,4.70
2023-02-25T12:10:50.360Z,4.60
2023-02-25T12:13:48.574Z,4.70
2023-02-25T12:16:49.524Z,4.90
2023-02-25T12:19:22.228Z,4.80
2023-02-25T12:22:12.882Z,4.80
2023-02-25T12:24:43.559Z,5.00
2023-02-25T12:27:48.249Z,4.90
2023-02-25T12:30:15.375Z,4.70
2023-02-25T12:33:06.221Z,4.70
2023-02-25T12:36:03.849Z,4.40
2023-02-25T12:38:52.312Z,3.90
2023-02-25T12:41:45.710Z,4.10
2023-02-25T12:44:24.483Z,4.40
2023-02-25T12:47:06.028Z,4.50
2023-02-25T12:50:07.042Z,4.30
2023-02-25T12:52:47.975Z,4.40
2023-02-25T12:55:36.031Z,4.30
2023-02-25T12:58:06.014Z,4.20
2023-02-25T13:00:38.409Z,4.10
2023-02-25T13:04:01.519Z,4.30
2023-02-25T13:06:45.212Z,4.40
2023-02-25T13:09:26.069Z,4.40
2023-02-25T13:12:24.421Z,4.40
2023-02-25T13:15:25.308Z,4.40
2023-02-25T13:17:54.907Z,4.40
2023-02-25T13:20:37.222Z,4.30
2023-02-25T13:23:25.282Z,4.30
2023-02-25T13:26:12.746Z,4.40
2023-02-25T13:28:43.174Z,4.20
2023-02-25T13:31:48.847Z,4.10
2023-02-25T13:34:25.472Z,4.20
2023-02-25T13:37:38.206Z,4.20
2023-02-25T13:40:21.266Z,4.20
2023-02-25T13:43:27.508Z,4.20
2023-02-25T13:46:19.830Z,4.30
2023-02-25T13:49:15.056Z,4.00
2023-02-25T13:52:05.239Z,4.00
2023-02-25T13:54:44.308Z,4.20
2023-02-25T13:57:29.866Z,4.30
2023-02-25T14:00:35.252Z,4.30
2023-02-25T14:03:29.980Z,4.30
2023-02-25T14:06:21.397Z,4.30
2023-02-25T14:09:06.921Z,4.30
2023-02-25T14:12:23.735Z,4.30
2023-02-25T14:15:28.920Z,4.20
2023-02-25T14:18:47.461Z,4.40
2023-02-25T14:22:00.795Z,4.30
2023-02-25T14:25:08.149Z,4.30
2023-02-25T14:27:51.328Z,4.20
2023-02-25T14:30:34.560Z,4.20
2023-02-25T14:33:17.350Z,4.10
2023-02-25T14:35:59.568Z,4.30
2023-02-25T14:39:20.548Z,4.00
2023-02-25T14:42:33.580Z,3.90
2023-02-25T14:45:14.579Z,3.70
2023-02-25T14:47:50.471Z,3.80
2023-02-25T14:50:23.198Z,3.60
2023-02-25T14:53:27.110Z,3.60
2023-02-25T14:56:18.458Z,3.60
2023-02-25T14:59:06.883Z,3.70
2023-02-25T15:01:57.530Z,3.90
2023-02-25T15:04:49.128Z,3.90
2023-02-25T15:07:56.267Z,3.80
2023-02-25T15:10:30.930Z,3.70
2023-02-25T15:13:00.566Z,3.70
2023-02-25T15:16:06.871Z,3.50
2023-02-25T15:18:54.653Z,3.60
2023-02-25T15:21:40.794Z,3.60
2023-02-25T15:24:38.450Z,3.60
2023-02-25T15:27:32.755Z,3.50
2023-02-25T15:30:02.238Z,3.50
2023-02-25T15:32:31.140Z,3.50
2023-02-25T15:35:01.569Z,3.40
2023-02-25T15:38:07.574Z,3.50
2023-02-25T15:40:34.319Z,3.50
2023-02-25T15:43:10.224Z,3.60
2023-02-25T15:45:39.717Z,3.50
2023-02-25T15:48:19.120Z,3.50
2023-02-25T15:50:52.059Z,3.50
2023-02-25T15:53:23.258Z,3.40
2023-02-25T15:56:05.196Z,3.40
2023-02-25T15:58:32.153Z,3.40
2023-02-25T16:01:06.289Z,3.40
2023-02-25T16:03:36.444Z,3.40
2023-02-25T16:06:14.119Z,3.40
2023-02-25T16:08:47.067Z,3.50
2023-02-25T16:11:26.915Z,3.50
2023-02-25T16:13:54.553Z,3.50
2023-02-25T16:16:23.593Z,3.50
2023-02-25T16:18:56.126Z,3.40
2023-02-25T16:21:32.293Z,3.30
2023-02-25T16:24:06.864Z,3.10
2023-02-25T16:26:45.326Z,3.20
2023-02-25T16:29:29.619Z,3.20
2023-02-25T16:32:20.650Z,3.20
2023-02-25T16:35:10.319Z,3.20
2023-02-25T16:37:42.980Z,3.10
2023-02-25T16:40:37.844Z,3.00
2023-02-25T16:43:06.452Z,3.10
2023-02-25T16:45:42.557Z,3.00
2023-02-25T16:48:18.820Z,2.90
2023-02-25T16:50:51.284Z,2.90
2023-02-25T16:53:22.854Z,2.90
2023-02-25T16:55:51.680Z,2.80
2023-02-25T16:58:20.858Z,2.70
2023-02-25T17:01:00.134Z,2.70
2023-02-25T17:03:34.068Z,2.60
2023-02-25T17:06:08.097Z,2.50
2023-02-25T17:08:35.937Z,2.50
2023-02-25T17:11:05.737Z,2.40
2023-02-25T17:13:36.743Z,2.40
2023-02-25T17:16:08.731Z,2.50
2023-02-25T17:18:45.708Z,2.40
2023-02-25T17:21:26.475Z,2.30
2023-02-25T17:23:54.206Z,2.30
2023-02-25T17:26:21.686Z,2.30
2023-02-25T17:28:52.125Z,2.30
2023-02-25T17:31:27.051Z,2.20
2023-02-25T17:34:01.220Z,2.20
2023-02-25T17:36:33.005Z,2.10
2023-02-25T17:39:07.635Z,2.10
2023-02-25T17:41:36.335Z,2.10
2023-02-25T17:44:03.290Z,2.10
2023-02-25T17:46:38.282Z,2.00
2023-02-25T17:49:21.431Z,1.90
2023-02-25T17:51:57.685Z,1.90
2023-02-25T17:54:27.427Z,1.90
2023-02-25T17:57:01.500Z,1.80
2023-02-25T17:59:29.356Z,1.80
2023-02-25T18:02:01.041Z,1.70
2023-02-25T18:04:35.800Z,1.60
2023-02-25T18:07:24.467Z,1.60
2023-02-25T18:09:51.629Z,1.70
2023-02-25T18:12:32.097Z,1.70
2023-02-25T18:15:02.368Z,1.50
2023-02-25T18:17:33.695Z,1.60
2023-02-25T18:20:07.216Z,1.60
2023-02-25T18:22:45.370Z,1.50
2023-02-25T18:25:37.234Z,1.60
2023-02-25T18:28:06.779Z,1.50
2023-02-25T18:30:33.827Z,1.50
2023-02-25T18:33:00.668Z,1.40
2023-02-25T18:35:29.746Z,1.40
2023-02-25T18:37:58.075Z,1.40
2023-02-25T18:40:40.185Z,1.40
2023-02-25T18:43:07.247Z,1.40
2023-02-25T18:45:37.183Z,1.30
2023-02-25T18:48:04.564Z,1.30
2023-02-25T18:50:32.815Z,1.30
2023-02-25T18:53:00.753Z,1.20
2023-02-25T18:55:30.974Z,1.20
2023-02-25T18:57:58.861Z,1.20
2023-02-25T19:00:30.238Z,1.20
2023-02-25T19:03:01.926Z,1.20
2023-02-25T19:05:29.808Z,1.20
2023-02-25T19:07:57.186Z,1.20
2023-02-25T19:10:27.968Z,1.20
2023-02-25T19:13:06.003Z,1.20
2023-02-25T19:15:33.528Z,1.40
2023-02-25T19:18:00.328Z,1.40
2023-02-25T19:20:27.169Z,1.50
2023-02-25T19:22:54.518Z,1.50
2023-02-25T19:25:23.442Z,1.40
2023-02-25T19:27:51.701Z,1.30
2023-02-25T19:30:21.365Z,1.20
2023-02-25T19:32:48.598Z,1.20
2023-02-25T19:35:15.764Z,1.10
2023-02-25T19:37:43.416Z,1.00
2023-02-25T19:40:14.614Z,0.90
2023-02-25T19:42:43.532Z,0.70
2023-02-25T19:45:13.619Z,0.80
2023-02-25T19:47:40.690Z,0.80
2023-02-25T19:50:08.632Z,0.70
2023-02-25T19:52:36.344Z,0.70
2023-02-25T19:55:04.676Z,0.70
2023-02-25T19:57:32.089Z,0.70
2023-02-25T19:59:59.217Z,0.60
2023-02-25T20:02:26.272Z,0.70
2023-02-25T20:04:53.124Z,0.60
2023-02-25T20:07:20.009Z,0.60
2023-02-25T20:09:46.883Z,0.60
2023-02-25T20:12:14.113Z,0.50
2023-02-25T20:14:40.947Z,0.40
2023-02-25T20:17:08.287Z,0.40
2023-02-25T20:19:35.735Z,0.40
2023-02-25T20:22:06.538Z,0.40
2023-02-25T20:24:34.592Z,0.50
2023-02-25T20:27:01.405Z,0.50
2023-02-25T20:29:28.902Z,0.50
2023-02-25T20:31:59.202Z,0.60
2023-02-25T20:34:27.592Z,0.60
2023-02-25T20:37:10.822Z,0.60
2023-02-25T20:39:37.572Z,0.60
2023-02-25T20:42:14.367Z,0.60
2023-02-25T20:44:41.830Z,0.70
2023-02-25T20:47:25.754Z,0.60
2023-02-25T20:49:54.501Z,0.60
2023-02-25T20:52:22.068Z,0.60
2023-02-25T20:54:52.736Z,0.60
2023-02-25T20:57:22.374Z,0.60
2023-02-25T20:59:49.927Z,0.60
2023-02-25T21:02:17.749Z,0.50
2023-02-25T21:04:44.781Z,0.50
2023-02-25T21:07:15.169Z,0.40
2023-02-25T21:09:42.357Z,0.50
2023-02-25T21:12:09.706Z,0.40
2023-02-25T21:14:36.869Z,0.30
2023-02-25T21:17:09.530Z,0.20
2023-02-25T21:19:38.826Z,0.20
2023-02-25T21:22:07.259Z,0.10
2023-02-25T21:24:34.798Z,0.10
2023-02-25T21:27:01.893Z,0.00
2023-02-25T21:29:28.979Z,0.00
2023-02-25T21:31:56.752Z,-0.10
2023-02-25T21:34:24.114Z,-0.10
2023-02-25T21:36:51.111Z,-0.20
2023-02-25T21:39:18.286Z,-0.20
2023-02-25T21:41:45.576Z,-0.20
2023-02-25T21:44:12.843Z,-0.30
2023-02-25T21:46:41.092Z,-0.30
2023-02-25T21:49:10.481Z,-0.30
2023-02-25T21:51:38.154Z,-0.40
2023-02-25T21:54:05.132Z,-0.40
2023-02-25T21:56:32.210Z,-0.40
2023-02-25T21:59:02.028Z,-0.40
2023-02-25T22:01:36.029Z,-0.40
2023-02-25T22:04:04.064Z,-0.50
2023-02-25T22:06:31.986Z,-0.50
2023-02-25T22:09:00.278Z,-0.40
2023-02-25T22:11:33.812Z,-0.50
2023-02-25T22:14:02.119Z,-0.50
2023-02-25T22:16:29.559Z,-0.50
2023-02-25T22:18:56.854Z,-0.50
2023-02-25T22:21:29.503Z,-0.50
2023-02-25T22:23:58.851Z,-0.60
2023-02-25T22:26:28.358Z,-0.60
2023-02-25T22:29:01.464Z,-0.60
2023-02-25T22:31:29.909Z,-0.60
2023-02-25T22:33:58.851Z,-0.50
2023-02-25T22:36:26.249Z,-0.60
2023-02-25T22:38:54.019Z,-0.50
2023-02-25T22:41:31.012Z,-0.50
2023-02-25T22:43:59.105Z,-0.50
2023-02-25T22:46:31.892Z,-0.50
2023-02-25T22:48:59.502Z,-0.50
2023-02-25T22:51:32.551Z,-0.60
2023-02-25T22:54:00.613Z,-0.60
2023-02-25T22:56:28.241Z,-0.70
2023-02-25T22:58:55.542Z,-0.70
2023-02-25T23:01:24.449Z,-0.70
2023-02-25T23:03:52.605Z,-0.70
2023-02-25T23:06:24.994Z,-0.70
2023-02-25T23:08:56.330Z,-0.80
2023-02-25T23:11:28.860Z,-0.70
2023-02-25T23:13:58.543Z,-0.70
2023-02-25T23:16:29.660Z,-0.60
2023-02-25T23:19:01.329Z,-0.70
2023-02-25T23:21:29.273Z,-0.70
2023-02-25T23:23:58.660Z,-0.70
2023-02-25T23:26:28.966Z,-0.80
2023-02-25T23:29:01.715Z,-0.60
2023-02-25T23:31:31.903Z,-0.70
2023-02-25T23:34:10.608Z,-0.60
2023-02-25T23:36:43.416Z,-0.70
2023-02-25T23:39:11.225Z,-0.70
2023-02-25T23:41:39.194Z,-0.70
2023-02-25T23:44:08.410Z,-0.70
2023-02-25T23:46:37.319Z,-0.70
2023-02-25T23:49:07.252Z,-0.70
2023-02-25T23:51:35.387Z,-0.70
2023-02-25T23:54:05.696Z,-0.70
2023-02-25T23:56:33.533Z,-0.70
2023-02-25T23:59:04.090Z,-0.80
